Terminal Aerodrome Forecast
Issued by NWS Sterling, VA

Current Version | Previous Version | Graphics & Text | Print | Product List | Glossary On
Versions: 1 2 3 4 5 6 7 8 9 10 11 12 13 14 15 16 17 18 19 20 21 22 23 24
028
FTUS41 KLWX 051459 AAB
TAFIAD
TAF AMD
KIAD 051459Z 0515/0618 29006KT P6SM SCT008 BKN050
      TEMPO 0515/0516 BKN008
     FM051600 32008G16KT P6SM BKN050
     FM052200 33007KT P6SM SCT200
     FM060500 VRB03KT P6SM OVC200
     FM061300 09005KT 6SM RAPL OVC050=

USA.gov is the U.S. government's official web portal to all federal, state and local government web resources and services.